• Join FlightAware (Why Join?)
  • Login
  • US Flag 
09:22PM EDT


 

Airport Tracker/Info


-or-


 

Live Flight TrackerFlight Track Log ✈ N1944E ✈ 25-Aug-2013 ✈ KCOD - KPNA

Flight Track Log - Related Links

Times and Time Zones

All times are in EDT time to prevent confusion due to time zone crossing. See the N1944E flight status page for this flight to view local times or setup timezone preferences in your user account.

Time Position Orientation Groundspeed Altitude Reporting Facility
EDT Latitude Longitude Course Direction KTS MPH feet Rate Location/Type
11:56AM 44.3961 -109.2183 223° Southwest 125 144 10,300  Level Salt Lake Center
11:57AM 44.3714 -109.2511 223° Southwest 123 142 11,100 780 Climbing Salt Lake Center
11:58AM 44.3428 -109.2842 220° Southwest 127 146 12,000 900 Climbing Salt Lake Center
11:59AM 44.3086 -109.3050 204° Southwest 129 148 13,000 900 Climbing Salt Lake Center
12:00PM 44.2597 -109.3261 197° South 145 167 13,900 840 Climbing Salt Lake Center
12:01PM 44.2203 -109.3494 203° Southwest 152 175 14,800 840 Climbing Salt Lake Center
12:02PM 44.1811 -109.3800 209° Southwest 158 182 15,700 540 Climbing Salt Lake Center
12:03PM 44.1400 -109.4089 207° Southwest 163 188 16,000 120 Climbing Salt Lake Center
12:04PM 44.0928 -109.4425 207° Southwest 181 208 16,000  Level Salt Lake Center
12:05PM 44.0397 -109.4800 207° Southwest 190 219 16,000  Level Salt Lake Center
12:06PM 43.9944 -109.5142 208° Southwest 191 220 16,000  Level Salt Lake Center
12:07PM 43.9422 -109.5531 208° Southwest 191 220 16,000  Level Salt Lake Center
12:08PM 43.8983 -109.5847 207° Southwest 188 216 16,000  Level Salt Lake Center
12:09PM 43.8450 -109.6211 206° Southwest 190 219 16,000  Level Salt Lake Center
12:10PM 43.7992 -109.6497 204° Southwest 188 216 16,000  Level Salt Lake Center
12:11PM 43.7478 -109.6875 208° Southwest 188 216 16,100  Climbing Salt Lake Center
12:12PM 43.7028 -109.7181 206° Southwest 188 216 16,100  Level Salt Lake Center
12:13PM 43.6500 -109.7508 204° Southwest 187 215 16,100  Level Salt Lake Center
12:14PM 43.6053 -109.7808 206° Southwest 186 214 16,100  Level Salt Lake Center
12:15PM 43.5519 -109.8161 206° Southwest 188 216 16,100 -120 Level Salt Lake Center
12:16PM 43.5064 -109.8453 205° Southwest 189 217 15,900 -240 Descending Salt Lake Center